createdAt,value
2019-03-12T00:01:19.526Z,90.66
2019-03-12T00:03:46.899Z,90.60
2019-03-12T00:06:14.219Z,90.08
2019-03-12T00:08:41.603Z,90.18
2019-03-12T00:11:08.924Z,90.18
2019-03-12T00:13:36.239Z,90.26
2019-03-12T00:16:03.721Z,90.28
2019-03-12T00:18:31.375Z,89.97
2019-03-12T00:20:58.739Z,89.80
2019-03-12T00:23:26.080Z,89.80
2019-03-12T00:25:53.361Z,90.01
2019-03-12T00:28:20.699Z,90.29
2019-03-12T00:30:48.038Z,90.26
2019-03-12T00:33:15.380Z,90.10
2019-03-12T00:35:42.719Z,90.09
2019-03-12T00:38:10.039Z,90.58
2019-03-12T00:40:37.367Z,90.67
2019-03-12T00:43:04.686Z,90.58
2019-03-12T00:45:32.019Z,90.95
2019-03-12T00:47:59.319Z,91.05
2019-03-12T00:50:26.761Z,91.23
2019-03-12T00:52:54.041Z,91.38
2019-03-12T00:55:21.339Z,91.60
2019-03-12T00:57:48.679Z,91.78
2019-03-12T01:00:16.259Z,91.92
2019-03-12T01:02:43.541Z,91.76
2019-03-12T01:05:13.444Z,91.84
2019-03-12T01:07:40.852Z,92.07
2019-03-12T01:10:09.703Z,92.07
2019-03-12T01:12:38.240Z,92.10
2019-03-12T01:15:05.739Z,92.00
2019-03-12T01:17:33.042Z,92.01
2019-03-12T01:20:00.415Z,91.85
2019-03-12T01:22:27.711Z,91.85
2019-03-12T01:24:55.002Z,91.86
2019-03-12T01:27:22.359Z,91.80
2019-03-12T01:29:49.662Z,91.98
2019-03-12T01:32:17.002Z,92.16
2019-03-12T01:34:44.320Z,92.10
2019-03-12T01:37:11.640Z,92.17
2019-03-12T01:39:38.979Z,92.07
2019-03-12T01:42:06.312Z,92.07
2019-03-12T01:44:33.665Z,90.56
2019-03-12T01:47:00.960Z,90.56
2019-03-12T01:49:28.244Z,90.31
2019-03-12T01:51:55.568Z,90.96
2019-03-12T01:54:22.842Z,91.33
2019-03-12T01:56:50.180Z,91.49
2019-03-12T01:59:17.499Z,91.73
2019-03-12T02:01:44.839Z,91.72
2019-03-12T02:04:12.149Z,91.63
2019-03-12T02:06:39.519Z,91.65
2019-03-12T02:09:07.692Z,91.81
2019-03-12T02:11:35.083Z,92.00
2019-03-12T02:14:23.040Z,92.21
2019-03-12T02:16:50.339Z,92.21
2019-03-12T02:19:17.659Z,92.10
2019-03-12T02:21:44.999Z,92.02
2019-03-12T02:24:12.360Z,92.07
2019-03-12T02:26:39.619Z,92.19
2019-03-12T02:29:06.983Z,91.84
2019-03-12T02:31:34.300Z,91.84
2019-03-12T02:34:01.648Z,91.70
2019-03-12T02:36:28.942Z,91.70
2019-03-12T02:38:56.303Z,91.73
2019-03-12T02:41:23.642Z,91.62
2019-03-12T02:43:50.941Z,91.73
2019-03-12T02:46:18.263Z,91.84
2019-03-12T02:48:45.564Z,91.64
2019-03-12T02:51:12.920Z,91.59
2019-03-12T02:53:40.179Z,91.59
2019-03-12T02:56:07.500Z,91.66
2019-03-12T02:58:34.859Z,91.65
2019-03-12T03:01:02.149Z,91.41
2019-03-12T03:03:29.459Z,91.41
2019-03-12T03:06:07.543Z,91.51
2019-03-12T03:08:34.852Z,91.05
2019-03-12T03:11:02.731Z,91.05
2019-03-12T03:13:30.039Z,91.42
2019-03-12T03:15:57.339Z,91.71
2019-03-12T03:18:24.740Z,91.39
2019-03-12T03:20:52.240Z,91.39
2019-03-12T03:23:19.663Z,91.63
2019-03-12T03:25:47.293Z,91.46
2019-03-12T03:28:14.583Z,91.34
2019-03-12T03:30:41.960Z,91.19
2019-03-12T03:33:11.355Z,90.93
2019-03-12T03:35:38.747Z,90.91
2019-03-12T03:38:06.079Z,90.78
2019-03-12T03:40:33.396Z,90.78
2019-03-12T03:43:00.743Z,90.51
2019-03-12T03:45:28.060Z,90.26
2019-03-12T03:47:55.388Z,90.51
2019-03-12T03:50:22.714Z,90.61
2019-03-12T03:52:50.460Z,90.43
2019-03-12T03:55:17.782Z,90.39
2019-03-12T03:57:45.080Z,90.23
2019-03-12T04:00:15.264Z,90.52
2019-03-12T04:02:42.607Z,91.18
2019-03-12T04:05:09.959Z,91.09
2019-03-12T04:07:37.314Z,91.05
2019-03-12T04:10:05.533Z,90.61
2019-03-12T04:12:32.863Z,90.61
2019-03-12T04:15:00.483Z,89.88
2019-03-12T04:17:27.925Z,90.51
2019-03-12T04:19:55.259Z,90.31
2019-03-12T04:22:22.559Z,90.33
2019-03-12T04:24:49.861Z,90.09
2019-03-12T04:27:17.260Z,89.71
2019-03-12T04:29:44.554Z,90.05
2019-03-12T04:32:11.860Z,90.19
2019-03-12T04:34:40.952Z,90.20
2019-03-12T04:37:08.324Z,90.07
2019-03-12T04:39:35.623Z,90.71
2019-03-12T04:42:02.920Z,90.91
2019-03-12T04:44:30.243Z,90.92
2019-03-12T04:46:57.559Z,91.11
2019-03-12T04:49:24.885Z,91.22
2019-03-12T04:51:52.210Z,91.32
2019-03-12T04:54:19.518Z,91.21
2019-03-12T04:56:46.831Z,91.70
2019-03-12T04:59:14.187Z,91.78
2019-03-12T05:01:41.479Z,91.45
2019-03-12T05:04:08.782Z,91.77
2019-03-12T05:06:36.119Z,91.79
2019-03-12T05:09:07.376Z,91.73
2019-03-12T05:11:34.759Z,91.73
2019-03-12T05:14:24.405Z,91.77
2019-03-12T05:16:53.500Z,91.80
2019-03-12T05:19:21.172Z,91.56
2019-03-12T05:21:48.439Z,91.50
2019-03-12T05:24:16.062Z,91.45
2019-03-12T05:26:43.361Z,91.35
2019-03-12T05:29:10.702Z,91.31
2019-03-12T05:31:37.951Z,91.44
2019-03-12T05:34:05.307Z,91.41
2019-03-12T05:36:32.599Z,91.40
2019-03-12T05:38:59.943Z,91.41
2019-03-12T05:41:27.272Z,91.41
2019-03-12T05:43:54.596Z,91.15
2019-03-12T05:46:21.961Z,90.97
2019-03-12T05:48:49.272Z,90.65
2019-03-12T05:51:16.644Z,90.60
2019-03-12T05:53:46.931Z,90.95
2019-03-12T05:56:14.202Z,90.93
2019-03-12T05:58:41.519Z,91.01
2019-03-12T06:01:08.819Z,91.12
2019-03-12T06:03:36.200Z,90.83
2019-03-12T06:06:03.477Z,90.20
2019-03-12T06:08:30.962Z,89.53
2019-03-12T06:10:58.244Z,89.56
2019-03-12T06:13:25.961Z,89.41
2019-03-12T06:15:53.393Z,89.37
2019-03-12T06:18:21.077Z,89.12
2019-03-12T06:20:48.567Z,89.58
2019-03-12T06:23:15.905Z,89.56
2019-03-12T06:25:43.245Z,89.45
2019-03-12T06:28:10.599Z,89.17
2019-03-12T06:30:49.489Z,89.52
2019-03-12T06:33:24.301Z,89.85
2019-03-12T06:36:00.284Z,90.36
2019-03-12T06:38:47.397Z,90.39
2019-03-12T06:41:28.608Z,90.75
2019-03-12T06:44:13.822Z,90.55
2019-03-12T06:46:57.996Z,90.06
2019-03-12T06:49:31.116Z,89.90
2019-03-12T06:52:07.068Z,89.71
2019-03-12T06:54:53.949Z,89.53
2019-03-12T06:57:39.342Z,89.13
2019-03-12T07:00:28.848Z,89.38
2019-03-12T07:03:11.636Z,88.59
2019-03-12T07:05:53.279Z,87.87
2019-03-12T07:08:40.105Z,88.32
2019-03-12T07:11:25.360Z,88.52
2019-03-12T07:14:06.514Z,88.79
2019-03-12T07:16:51.779Z,88.78
2019-03-12T07:19:30.307Z,88.38
2019-03-12T07:22:23.078Z,88.09
2019-03-12T07:25:15.757Z,87.83
2019-03-12T07:28:02.640Z,87.50
2019-03-12T07:30:55.609Z,87.18
2019-03-12T07:33:42.453Z,86.23
2019-03-12T07:36:31.948Z,85.27
2019-03-12T07:39:36.838Z,85.32
2019-03-12T07:42:41.899Z,83.10
2019-03-12T07:45:47.016Z,83.28
2019-03-12T07:48:32.455Z,83.39
2019-03-12T07:51:18.073Z,82.72
2019-03-12T07:54:07.513Z,81.83
2019-03-12T07:56:48.592Z,80.57
2019-03-12T07:59:38.084Z,80.05
2019-03-12T08:02:27.597Z,79.72
2019-03-12T08:05:17.100Z,80.60
2019-03-12T08:07:57.159Z,80.10
2019-03-12T08:10:33.806Z,80.34
2019-03-12T08:13:23.149Z,79.89
2019-03-12T08:16:03.499Z,79.53
2019-03-12T08:18:53.201Z,79.25
2019-03-12T08:21:41.609Z,78.47
2019-03-12T08:24:32.489Z,79.02
2019-03-12T08:27:31.229Z,79.31
2019-03-12T08:30:20.775Z,78.18
2019-03-12T08:33:08.544Z,76.10
2019-03-12T08:35:54.300Z,74.66
2019-03-12T08:38:39.741Z,74.74
2019-03-12T08:41:35.471Z,73.20
2019-03-12T08:44:11.440Z,71.26
2019-03-12T08:47:10.364Z,69.80
2019-03-12T08:49:58.570Z,69.30
2019-03-12T08:52:40.160Z,68.82
2019-03-12T08:55:30.965Z,70.07
2019-03-12T08:58:13.477Z,69.07
2019-03-12T09:00:54.958Z,67.68
2019-03-12T09:03:51.997Z,69.59
2019-03-12T09:06:35.295Z,70.22
2019-03-12T09:09:23.353Z,71.59
2019-03-12T09:12:08.778Z,73.52
2019-03-12T09:14:51.537Z,73.52
2019-03-12T09:17:44.422Z,74.52
2019-03-12T09:20:26.692Z,74.97
2019-03-12T09:23:12.097Z,70.84
2019-03-12T09:25:58.929Z,72.11
2019-03-12T09:28:40.933Z,73.73
2019-03-12T09:31:26.333Z,71.34
2019-03-12T09:34:16.321Z,72.70
2019-03-12T09:37:15.082Z,70.23
2019-03-12T09:39:50.278Z,73.35
2019-03-12T09:42:33.344Z,73.32
2019-03-12T09:45:29.269Z,71.68
2019-03-12T09:48:15.160Z,72.63
2019-03-12T09:50:47.779Z,73.69
2019-03-12T09:53:24.518Z,74.38
2019-03-12T09:56:14.184Z,72.95
2019-03-12T09:59:01.035Z,71.60
2019-03-12T10:01:54.236Z,68.44
2019-03-12T10:04:41.102Z,68.01
2019-03-12T10:07:24.448Z,70.59
2019-03-12T10:10:20.279Z,69.67
2019-03-12T10:13:11.929Z,69.33
2019-03-12T10:15:56.500Z,70.12
2019-03-12T10:18:45.860Z,69.21
2019-03-12T10:21:32.721Z,71.01
2019-03-12T10:24:28.987Z,67.85
2019-03-12T10:27:15.910Z,67.96
2019-03-12T10:30:05.634Z,69.94
2019-03-12T10:32:49.679Z,68.67
2019-03-12T10:35:39.300Z,67.24
2019-03-12T10:38:57.259Z,67.92
2019-03-12T10:41:34.099Z,68.30
2019-03-12T10:44:13.061Z,69.53
2019-03-12T10:46:45.184Z,68.06
2019-03-12T10:49:12.529Z,65.97
2019-03-12T10:51:39.880Z,68.03
2019-03-12T10:54:07.181Z,68.75
2019-03-12T10:56:34.489Z,67.74
2019-03-12T10:59:01.791Z,67.21
2019-03-12T11:01:29.079Z,67.65
2019-03-12T11:03:56.403Z,68.87
2019-03-12T11:06:25.091Z,66.59
2019-03-12T11:08:52.404Z,67.35
2019-03-12T11:11:19.784Z,66.04
2019-03-12T11:13:47.150Z,66.97
2019-03-12T11:16:14.413Z,65.81
2019-03-12T11:18:41.856Z,64.51
2019-03-12T11:21:09.167Z,64.98
2019-03-12T11:23:36.487Z,63.58
2019-03-12T11:26:03.839Z,64.59
2019-03-12T11:28:31.180Z,63.76
2019-03-12T11:30:58.621Z,62.59
2019-03-12T11:33:25.944Z,61.81
2019-03-12T11:35:53.370Z,62.14
2019-03-12T11:38:20.715Z,63.85
2019-03-12T11:40:48.120Z,63.96
2019-03-12T11:43:15.489Z,62.83
2019-03-12T11:45:42.825Z,62.25
2019-03-12T11:48:10.433Z,63.38
2019-03-12T11:50:37.886Z,64.03
2019-03-12T11:53:05.371Z,60.71
2019-03-12T11:55:32.789Z,63.18
2019-03-12T11:58:00.116Z,61.76
2019-03-12T12:00:34.003Z,61.26
2019-03-12T12:03:01.319Z,61.77
2019-03-12T12:05:28.624Z,60.30
2019-03-12T12:07:56.102Z,62.83
2019-03-12T12:10:23.511Z,62.64
2019-03-12T12:12:50.915Z,60.69
2019-03-12T12:15:18.183Z,58.90
2019-03-12T12:17:45.566Z,57.54
2019-03-12T12:20:13.201Z,56.08
2019-03-12T12:22:40.481Z,56.98
2019-03-12T12:25:09.401Z,55.39
2019-03-12T12:27:36.693Z,56.45
2019-03-12T12:30:04.866Z,56.27
2019-03-12T12:32:32.154Z,55.40
2019-03-12T12:34:59.459Z,56.33
2019-03-12T12:37:26.790Z,56.18
2019-03-12T12:39:54.086Z,54.59
2019-03-12T12:42:21.383Z,54.12
2019-03-12T12:44:48.641Z,57.46
2019-03-12T12:47:15.994Z,54.22
2019-03-12T12:49:43.366Z,55.91
2019-03-12T12:52:10.660Z,52.62
2019-03-12T12:54:37.986Z,56.98
2019-03-12T12:57:06.319Z,55.23
2019-03-12T12:59:34.325Z,57.23
2019-03-12T13:02:01.578Z,54.68
2019-03-12T13:04:28.961Z,54.81
2019-03-12T13:06:56.256Z,51.73
2019-03-12T13:09:23.563Z,52.32
2019-03-12T13:11:50.966Z,51.24
2019-03-12T13:14:18.280Z,56.30
2019-03-12T13:16:45.592Z,49.22
2019-03-12T13:19:13.064Z,51.62
2019-03-12T13:21:40.489Z,52.63
2019-03-12T13:24:07.851Z,53.99
2019-03-12T13:26:35.255Z,57.13
2019-03-12T13:29:02.650Z,55.24
2019-03-12T13:31:30.070Z,51.23
2019-03-12T13:33:57.509Z,50.77
2019-03-12T13:36:24.795Z,49.92
2019-03-12T13:38:52.128Z,51.01
2019-03-12T13:41:19.519Z,53.85
2019-03-12T13:43:47.315Z,54.34
2019-03-12T13:46:14.613Z,51.54
2019-03-12T13:48:41.850Z,51.41
2019-03-12T13:51:09.174Z,51.30
2019-03-12T13:53:36.461Z,51.39
2019-03-12T13:56:03.712Z,53.04
2019-03-12T13:58:31.024Z,52.31
2019-03-12T14:00:58.288Z,51.67
2019-03-12T14:03:25.588Z,53.51
2019-03-12T14:05:52.894Z,54.49
2019-03-12T14:08:20.209Z,51.31
2019-03-12T14:10:47.509Z,52.04
2019-03-12T14:13:14.929Z,48.98
2019-03-12T14:15:42.281Z,49.26
2019-03-12T14:18:09.546Z,46.37
2019-03-12T14:20:49.042Z,51.35
2019-03-12T14:23:39.745Z,46.93
2019-03-12T14:26:07.158Z,51.92
2019-03-12T14:28:34.470Z,50.29
2019-03-12T14:31:01.946Z,50.10
2019-03-12T14:33:29.355Z,45.92
2019-03-12T14:35:56.742Z,48.48
2019-03-12T14:38:24.258Z,51.10
2019-03-12T14:40:51.608Z,49.30
2019-03-12T14:43:18.954Z,49.34
2019-03-12T14:45:50.215Z,47.44
2019-03-12T14:48:36.561Z,49.50
2019-03-12T14:51:05.273Z,49.85
2019-03-12T14:53:32.653Z,49.07
2019-03-12T14:56:00.028Z,51.10
2019-03-12T14:58:27.353Z,52.97
2019-03-12T15:00:54.690Z,53.78
2019-03-12T15:03:22.080Z,56.75
2019-03-12T15:05:49.388Z,50.69
2019-03-12T15:08:16.803Z,51.83
2019-03-12T15:10:44.203Z,53.53
2019-03-12T15:13:11.759Z,50.64
2019-03-12T15:15:39.130Z,53.52
2019-03-12T15:18:06.563Z,50.12
2019-03-12T15:20:34.057Z,50.92
2019-03-12T15:23:01.438Z,49.89
2019-03-12T15:25:28.791Z,49.43
2019-03-12T15:27:56.282Z,48.45
2019-03-12T15:30:23.659Z,49.43
2019-03-12T15:32:51.010Z,51.32
2019-03-12T15:35:18.430Z,52.58
2019-03-12T15:37:45.785Z,51.96
2019-03-12T15:40:14.125Z,53.10
2019-03-12T15:42:41.623Z,52.74
2019-03-12T15:45:10.243Z,51.68
2019-03-12T15:47:38.885Z,53.29
2019-03-12T15:50:09.837Z,53.76
2019-03-12T15:52:36.838Z,56.85
2019-03-12T15:55:04.605Z,57.77
2019-03-12T15:57:32.346Z,56.11
2019-03-12T15:59:59.919Z,53.09
2019-03-12T16:02:27.563Z,53.62
2019-03-12T16:04:55.123Z,54.21
2019-03-12T16:07:22.785Z,54.19
2019-03-12T16:12:50.387Z,53.79
2019-03-12T16:15:18.006Z,52.58
2019-03-12T16:17:45.582Z,53.80
2019-03-12T16:20:13.740Z,55.03
2019-03-12T16:22:41.825Z,55.63
2019-03-12T16:25:09.765Z,56.89
2019-03-12T16:27:37.360Z,55.72
2019-03-12T16:30:05.452Z,59.29
2019-03-12T16:32:35.310Z,58.39
2019-03-12T16:35:02.842Z,58.82
2019-03-12T16:37:30.461Z,57.94
2019-03-12T16:39:58.081Z,59.61
2019-03-12T16:42:34.557Z,60.35
2019-03-12T16:44:55.204Z,59.26
2019-03-12T16:47:22.761Z,59.11
2019-03-12T16:49:50.588Z,58.94
2019-03-12T16:52:18.163Z,59.16
2019-03-12T16:54:45.926Z,58.33
2019-03-12T16:57:13.551Z,59.15
2019-03-12T16:59:43.218Z,59.36
2019-03-12T17:02:11.326Z,58.33
2019-03-12T17:04:39.426Z,58.10
2019-03-12T17:07:07.201Z,58.56
2019-03-12T17:09:34.987Z,58.52
2019-03-12T17:12:03.407Z,56.71
2019-03-12T17:14:38.853Z,56.93
2019-03-12T17:17:00.648Z,57.56
2019-03-12T17:19:28.295Z,55.90
2019-03-12T17:21:56.038Z,57.75
2019-03-12T17:24:24.025Z,57.25
2019-03-12T17:26:51.990Z,57.26
2019-03-12T17:29:19.664Z,58.83
2019-03-12T17:31:47.472Z,56.53
2019-03-12T17:34:15.390Z,57.05
2019-03-12T17:36:43.134Z,57.16
2019-03-12T17:39:10.868Z,58.28
2019-03-12T17:41:38.581Z,57.24
2019-03-12T17:44:06.409Z,57.08
2019-03-12T17:46:34.222Z,58.44
2019-03-12T17:49:01.955Z,57.53
2019-03-12T17:51:29.639Z,58.89
2019-03-12T17:53:57.302Z,60.24
2019-03-12T17:56:25.010Z,58.27
2019-03-12T17:58:52.704Z,57.40
2019-03-12T18:01:20.331Z,58.13
2019-03-12T18:03:48.029Z,58.84
2019-03-12T18:06:15.655Z,59.45
2019-03-12T18:08:43.294Z,60.32
2019-03-12T18:11:11.100Z,59.94
2019-03-12T18:13:38.858Z,60.36
2019-03-12T18:16:06.695Z,60.72
2019-03-12T18:18:34.521Z,61.18
2019-03-12T18:21:02.490Z,59.64
2019-03-12T18:23:30.149Z,58.88
2019-03-12T18:25:58.428Z,58.68
2019-03-12T18:28:26.243Z,58.09
2019-03-12T18:30:53.983Z,57.46
2019-03-12T18:33:22.013Z,59.43
2019-03-12T18:35:49.814Z,59.03
2019-03-12T18:38:17.526Z,62.13
2019-03-12T18:40:45.870Z,63.21
2019-03-12T18:43:14.992Z,65.39
2019-03-12T18:45:45.793Z,64.60
2019-03-12T18:48:13.998Z,66.06
2019-03-12T18:50:42.702Z,62.17
2019-03-12T18:53:10.449Z,62.08
2019-03-12T18:55:52.834Z,65.22
2019-03-12T18:58:20.623Z,67.71
2019-03-12T19:00:49.262Z,66.59
2019-03-12T19:03:17.273Z,66.25
2019-03-12T19:05:45.362Z,67.50
2019-03-12T19:08:13.072Z,67.24
2019-03-12T19:10:40.841Z,67.40
2019-03-12T19:13:08.927Z,68.14
2019-03-12T19:15:36.835Z,67.57
2019-03-12T19:18:08.763Z,67.74
2019-03-12T19:20:36.530Z,68.10
2019-03-12T19:23:04.376Z,69.14
2019-03-12T19:25:32.843Z,68.79
2019-03-12T19:28:00.798Z,68.78
2019-03-12T19:30:28.628Z,68.73
2019-03-12T19:33:01.970Z,68.65
2019-03-12T19:35:29.886Z,67.39
2019-03-12T19:37:57.779Z,68.71
2019-03-12T19:40:26.059Z,69.58
2019-03-12T19:42:53.881Z,69.65
2019-03-12T19:45:21.731Z,68.35
2019-03-12T19:47:49.687Z,66.00
2019-03-12T19:50:17.676Z,65.71
2019-03-12T19:52:45.637Z,65.93
2019-03-12T19:55:19.622Z,66.99
2019-03-12T19:57:47.695Z,68.49
2019-03-12T20:00:16.889Z,67.45
2019-03-12T20:02:47.151Z,65.22
2019-03-12T20:05:15.331Z,62.14
2019-03-12T20:07:43.407Z,62.44
2019-03-12T20:10:45.658Z,64.66
2019-03-12T20:13:42.828Z,65.15
2019-03-12T20:17:09.553Z,61.13
2019-03-12T20:20:12.033Z,65.12
2019-03-12T20:23:16.176Z,65.69
2019-03-12T20:26:20.647Z,66.68
2019-03-12T20:29:53.229Z,66.85
2019-03-12T20:33:09.111Z,66.55
2019-03-12T20:36:22.699Z,66.54
2019-03-12T20:39:20.236Z,65.94
2019-03-12T20:42:31.863Z,67.98
2019-03-12T20:45:28.254Z,65.45
2019-03-12T20:48:33.324Z,66.77
2019-03-12T20:51:45.400Z,67.59
2019-03-12T20:54:51.730Z,66.70
2019-03-12T20:58:08.387Z,66.74
2019-03-12T21:01:39.087Z,67.27
2019-03-12T21:04:42.751Z,66.41
2019-03-12T21:07:50.861Z,67.97
2019-03-12T21:10:55.536Z,65.74
2019-03-12T21:14:38.459Z,67.09
2019-03-12T21:17:48.731Z,67.62
2019-03-12T21:20:52.546Z,66.28
2019-03-12T21:23:52.635Z,63.31
2019-03-12T21:27:03.062Z,63.71
2019-03-12T21:29:49.205Z,64.93
2019-03-12T21:32:17.951Z,65.63
2019-03-12T21:34:46.002Z,65.76
2019-03-12T21:37:13.885Z,65.60
2019-03-12T21:39:54.472Z,65.34
2019-03-12T21:42:11.440Z,64.04
2019-03-12T21:44:39.183Z,60.40
2019-03-12T21:47:07.073Z,62.82
2019-03-12T21:49:34.894Z,62.45
2019-03-12T21:52:02.723Z,63.96
2019-03-12T21:54:30.585Z,64.09
2019-03-12T21:56:58.244Z,64.09
2019-03-12T21:59:25.583Z,64.96
2019-03-12T22:01:53.056Z,61.87
2019-03-12T22:04:20.453Z,63.67
2019-03-12T22:06:47.832Z,63.85
2019-03-12T22:09:15.236Z,63.41
2019-03-12T22:11:42.717Z,59.06
2019-03-12T22:14:10.082Z,55.01
2019-03-12T22:16:37.401Z,54.53
2019-03-12T22:19:04.783Z,54.24
2019-03-12T22:21:41.034Z,54.23
2019-03-12T22:24:08.448Z,53.13
2019-03-12T22:26:35.815Z,55.16
2019-03-12T22:29:03.270Z,56.88
2019-03-12T22:31:30.591Z,58.08
2019-03-12T22:33:57.897Z,57.84
2019-03-12T22:36:25.200Z,55.72
2019-03-12T22:38:52.527Z,56.48
2019-03-12T22:41:19.821Z,56.90
2019-03-12T22:43:47.189Z,57.65
2019-03-12T22:46:14.526Z,59.52
2019-03-12T22:48:42.333Z,59.91
2019-03-12T22:51:09.662Z,57.32
2019-03-12T22:53:39.461Z,55.94
2019-03-12T22:56:06.820Z,55.75
2019-03-12T22:58:34.144Z,56.68
2019-03-12T23:01:01.461Z,55.09
2019-03-12T23:03:28.802Z,56.94
2019-03-12T23:05:56.162Z,53.99
2019-03-12T23:08:23.529Z,54.59
2019-03-12T23:10:50.900Z,56.13
2019-03-12T23:13:18.571Z,55.22
2019-03-12T23:15:45.863Z,55.95
2019-03-12T23:18:13.187Z,57.66
2019-03-12T23:20:40.481Z,56.80
2019-03-12T23:23:07.825Z,56.37
2019-03-12T23:25:35.122Z,56.29
2019-03-12T23:28:02.427Z,56.35
2019-03-12T23:30:29.732Z,55.02
2019-03-12T23:32:57.021Z,52.40
2019-03-12T23:35:24.280Z,52.69
2019-03-12T23:37:51.600Z,53.08
2019-03-12T23:40:19.001Z,53.08
2019-03-12T23:42:46.359Z,55.10
2019-03-12T23:45:14.461Z,53.52
2019-03-12T23:47:41.965Z,53.75
2019-03-12T23:50:09.445Z,54.91
2019-03-12T23:52:36.904Z,55.73
2019-03-12T23:55:04.351Z,52.13
2019-03-12T23:57:31.662Z,51.37
2019-03-12T23:59:58.981Z,52.86
